Time;durP1;ratioP1;P1;durP2;ratioP2;P2;SDS_P1;SDS_P2;PMS_P1;PMS_P2;Temp;Humidity;BMP_temperature;BMP_pressure;BME280_temperature;BME280_humidity;BME280_pressure;Samples;Min_cycle;Max_cycle;Signal;HPM_P1;HPM_P2
2023/04/03 00:00:42;;;;;;;6.20;5.60;;;3.60;1.00;;;;;;4974417;28;20193;-82
2023/04/03 00:03:08;;;;;;;7.05;6.00;;;3.60;1.00;;;;;;4976330;28;20680;-84
2023/04/03 00:05:36;;;;;;;10.00;5.27;;;3.60;1.00;;;;;;4976508;28;20199;-81
2023/04/03 00:08:07;;;;;;;7.00;5.72;;;3.50;1.00;;;;;;4952393;28;20256;-81
2023/04/03 00:10:33;;;;;;;6.43;5.40;;;3.50;1.00;;;;;;4956686;28;20696;-83
2023/04/03 00:12:59;;;;;;;6.37;5.77;;;3.50;1.00;;;;;;4957445;28;20199;-81
2023/04/03 00:15:25;;;;;;;6.33;5.60;;;3.50;1.00;;;;;;4974040;28;20454;-81
2023/04/03 00:17:50;;;;;;;5.53;5.03;;;3.50;1.00;;;;;;4952852;28;20439;-85
2023/04/03 00:20:16;;;;;;;8.93;6.83;;;3.50;1.00;;;;;;4957779;28;20200;-81
2023/04/03 00:22:41;;;;;;;7.70;5.77;;;3.50;1.00;;;;;;4967589;28;20205;-86
2023/04/03 00:25:08;;;;;;;7.47;5.70;;;3.50;1.00;;;;;;4993909;28;20219;-83
2023/04/03 00:27:37;;;;;;;7.88;5.85;;;3.50;1.00;;;;;;4988659;28;20208;-88
2023/04/03 00:30:06;;;;;;;9.32;6.03;;;3.40;1.00;;;;;;4988618;28;20229;-86
2023/04/03 00:32:32;;;;;;;6.43;5.82;;;3.40;1.00;;;;;;4976014;28;20185;-87
2023/04/03 00:34:58;;;;;;;9.30;6.40;;;3.40;5.80;;;;;;4988691;28;20211;-84
2023/04/03 00:37:23;;;;;;;7.73;6.10;;;3.40;8.90;;;;;;4989519;28;20267;-84
2023/04/03 00:39:49;;;;;;;6.77;6.07;;;3.40;27.90;;;;;;4994891;28;20188;-86
2023/04/03 00:42:14;;;;;;;9.90;6.17;;;3.30;41.10;;;;;;4990275;28;20320;-85
2023/04/03 00:44:40;;;;;;;6.40;5.53;;;3.30;83.20;;;;;;4973232;28;20349;-81
2023/04/03 00:47:08;;;;;;;6.20;5.57;;;3.30;99.90;;;;;;4986023;28;20188;-87
2023/04/03 00:49:35;;;;;;;8.77;6.45;;;3.20;99.90;;;;;;4990212;28;20204;-84
2023/04/03 00:52:02;;;;;;;8.93;5.60;;;3.20;99.90;;;;;;4985854;28;20168;-82
2023/04/03 00:54:27;;;;;;;6.72;5.60;;;3.20;99.90;;;;;;4974491;28;20208;-84
2023/04/03 00:56:57;;;;;;;9.23;6.27;;;3.20;99.90;;;;;;4987906;28;20187;-84
2023/04/03 00:59:32;;;;;;;7.25;6.55;;;3.10;99.90;;;;;;4991429;28;20220;-82
2023/04/03 01:02:00;;;;;;;8.73;6.90;;;3.10;99.90;;;;;;4969010;28;20283;-81
2023/04/03 01:04:38;;;;;;;11.68;6.05;;;3.10;99.90;;;;;;4980000;28;20212;-88
2023/04/03 01:07:09;;;;;;;8.98;7.10;;;3.10;99.90;;;;;;4978241;28;20407;-85
2023/04/03 01:09:38;;;;;;;8.23;7.03;;;3.10;99.90;;;;;;4967995;28;20292;-85
2023/04/03 01:12:22;;;;;;;6.60;5.55;;;3.00;99.90;;;;;;4967694;28;20181;-84
2023/04/03 01:15:00;;;;;;;7.03;6.28;;;3.00;99.90;;;;;;4963439;28;20219;-81
2023/04/03 01:17:33;;;;;;;10.05;6.75;;;3.00;99.90;;;;;;4981666;28;20196;-86
2023/04/03 01:20:11;;;;;;;10.82;7.32;;;2.90;99.90;;;;;;4971928;28;20207;-83
2023/04/03 01:23:05;;;;;;;10.27;8.00;;;2.90;99.90;;;;;;4978665;28;20184;-84
2023/04/03 01:25:31;;;;;;;7.35;6.50;;;2.90;99.90;;;;;;4971826;28;20315;-85
2023/04/03 01:27:57;;;;;;;10.38;7.38;;;2.90;99.90;;;;;;4962430;28;20181;-83
2023/04/03 01:30:30;;;;;;;10.37;7.13;;;2.90;99.90;;;;;;4971704;28;20290;-81
2023/04/03 01:32:56;;;;;;;8.23;6.63;;;2.90;99.90;;;;;;4972740;28;20184;-83
2023/04/03 01:35:21;;;;;;;9.47;6.93;;;2.90;1.00;;;;;;4972403;28;20234;-84
2023/04/03 01:37:47;;;;;;;8.40;7.57;;;2.80;1.00;;;;;;4971032;28;20500;-81
2023/04/03 01:40:12;;;;;;;7.70;6.80;;;2.90;1.00;;;;;;4970459;28;20663;-81
2023/04/03 01:42:38;;;;;;;12.73;6.70;;;2.90;1.00;;;;;;4961807;28;20292;-83
2023/04/03 01:45:13;;;;;;;12.10;8.53;;;2.80;1.00;;;;;;4977950;28;20231;-81
2023/04/03 01:47:39;;;;;;;10.07;7.60;;;2.80;1.00;;;;;;4976095;28;20192;-81
2023/04/03 01:50:05;;;;;;;9.33;7.93;;;2.90;1.00;;;;;;4955287;28;20846;-82
2023/04/03 01:52:30;;;;;;;9.25;7.63;;;2.80;1.00;;;;;;4977589;28;20184;-84
2023/04/03 01:54:56;;;;;;;13.00;9.10;;;2.80;1.00;;;;;;4949535;28;20208;-81
2023/04/03 01:57:21;;;;;;;10.07;8.53;;;2.80;1.00;;;;;;4978398;28;20184;-82
2023/04/03 01:59:47;;;;;;;10.20;8.60;;;2.80;1.00;;;;;;4970398;28;20235;-82
2023/04/03 02:02:14;;;;;;;13.00;8.70;;;2.80;1.00;;;;;;4974066;28;20185;-81
2023/04/03 02:04:40;;;;;;;9.85;8.85;;;2.70;1.00;;;;;;4978423;28;20235;-82
2023/04/03 02:07:06;;;;;;;10.90;9.20;;;2.70;1.00;;;;;;4977222;28;20184;-82
2023/04/03 02:09:31;;;;;;;13.33;9.00;;;2.70;1.00;;;;;;4977086;28;20951;-83
2023/04/03 02:11:57;;;;;;;12.27;8.97;;;2.70;1.00;;;;;;4960314;28;20454;-81
2023/04/03 02:14:23;;;;;;;13.47;8.33;;;2.70;1.00;;;;;;4978274;28;20259;-83
2023/04/03 02:16:49;;;;;;;12.00;9.07;;;2.60;1.00;;;;;;4973335;28;20279;-81
2023/04/03 02:19:32;;;;;;;10.57;9.23;;;2.60;26.80;;;;;;4971822;28;20604;-83
2023/04/03 02:21:57;;;;;;;12.38;9.23;;;2.60;99.90;;;;;;4976217;28;20183;-81
2023/04/03 02:24:23;;;;;;;10.43;8.40;;;2.60;99.90;;;;;;4959996;28;20242;-81
2023/04/03 02:26:48;;;;;;;13.43;8.40;;;2.60;99.90;;;;;;4977220;28;20283;-82
2023/04/03 02:29:14;;;;;;;11.97;9.00;;;2.60;99.90;;;;;;4977345;28;20216;-81
2023/04/03 02:31:40;;;;;;;9.10;7.90;;;2.60;99.90;;;;;;4977187;28;20581;-81
2023/04/03 02:34:05;;;;;;;11.90;7.90;;;2.50;99.90;;;;;;4959767;28;20204;-81
2023/04/03 02:36:31;;;;;;;12.77;8.43;;;2.50;99.90;;;;;;4957522;28;20185;-84
2023/04/03 02:38:56;;;;;;;10.10;8.50;;;2.50;99.90;;;;;;4959398;28;20251;-81
2023/04/03 02:41:22;;;;;;;10.33;8.20;;;2.40;99.90;;;;;;4976045;28;20190;-82
2023/04/03 02:44:07;;;;;;;12.13;8.77;;;2.50;99.90;;;;;;4977267;28;20212;-81
2023/04/03 02:46:33;;;;;;;9.00;8.00;;;2.40;1.00;;;;;;4975884;28;20219;-81
2023/04/03 02:48:59;;;;;;;9.60;7.68;;;2.40;1.00;;;;;;4976489;28;20295;-81
2023/04/03 02:51:25;;;;;;;8.38;7.25;;;2.40;99.90;;;;;;4976970;28;20196;-83
2023/04/03 02:53:50;;;;;;;12.57;8.40;;;2.40;99.90;;;;;;4957079;28;20301;-87
2023/04/03 02:56:17;;;;;;;9.90;8.73;;;2.40;1.00;;;;;;4958513;28;20193;-84
2023/04/03 02:58:44;;;;;;;10.68;8.85;;;2.40;1.00;;;;;;4957597;28;20223;-81
2023/04/03 03:01:09;;;;;;;9.10;8.20;;;2.30;1.00;;;;;;4960182;28;20181;-81
2023/04/03 03:03:35;;;;;;;15.67;7.90;;;2.30;1.00;;;;;;4958736;28;20242;-86
2023/04/03 03:06:03;;;;;;;10.70;8.40;;;2.30;1.00;;;;;;4960220;28;20919;-82
2023/04/03 03:08:29;;;;;;;9.73;7.97;;;2.30;1.00;;;;;;4972418;28;20555;-81
2023/04/03 03:10:54;;;;;;;12.30;8.90;;;2.30;1.00;;;;;;4975367;28;20215;-81
2023/04/03 03:13:20;;;;;;;10.63;8.27;;;2.30;1.00;;;;;;4968392;28;20204;-87
2023/04/03 03:15:45;;;;;;;11.10;8.53;;;2.20;1.00;;;;;;4958350;28;20187;-81
2023/04/03 03:18:11;;;;;;;11.23;8.70;;;2.20;1.00;;;;;;4958401;28;20192;-85
2023/04/03 03:20:36;;;;;;;11.83;9.53;;;2.20;1.00;;;;;;4973975;28;20219;-81
2023/04/03 03:23:02;;;;;;;13.37;9.03;;;2.10;99.90;;;;;;4957436;28;20324;-81
2023/04/03 03:25:27;;;;;;;11.77;7.70;;;2.10;99.90;;;;;;4972120;28;20189;-82
2023/04/03 03:27:53;;;;;;;9.67;8.07;;;2.10;1.00;;;;;;4957268;28;20977;-81
2023/04/03 03:30:18;;;;;;;15.83;8.63;;;2.10;1.00;;;;;;4974005;28;20244;-87
2023/04/03 03:32:44;;;;;;;19.73;8.00;;;2.10;1.00;;;;;;4975737;28;20216;-82
2023/04/03 03:35:10;;;;;;;8.80;7.57;;;2.10;1.00;;;;;;4974128;28;20195;-83
2023/04/03 03:37:36;;;;;;;9.55;7.88;;;2.10;1.00;;;;;;4974928;28;20443;-84
2023/04/03 03:40:02;;;;;;;9.07;7.27;;;2.10;1.00;;;;;;4975810;28;20206;-81
2023/04/03 03:42:32;;;;;;;9.65;8.25;;;2.10;28.60;;;;;;4971611;28;20188;-81
2023/04/03 03:44:58;;;;;;;11.23;8.65;;;2.20;51.40;;;;;;4973993;28;20407;-81
2023/04/03 03:47:24;;;;;;;9.80;7.40;;;2.20;63.90;;;;;;4956430;28;20183;-81
2023/04/03 03:49:49;;;;;;;10.23;7.37;;;2.20;99.90;;;;;;4976080;28;20754;-81
2023/04/03 03:52:15;;;;;;;9.33;7.73;;;2.20;20.70;;;;;;4957250;28;20184;-83
2023/04/03 03:54:40;;;;;;;10.83;7.53;;;2.20;1.00;;;;;;4956640;28;20211;-81
2023/04/03 03:57:06;;;;;;;12.23;8.40;;;2.20;15.90;;;;;;4953837;28;20192;-81
2023/04/03 03:59:31;;;;;;;8.93;7.53;;;2.20;55.50;;;;;;4976470;28;20243;-82
2023/04/03 04:01:57;;;;;;;10.90;8.53;;;2.20;99.90;;;;;;4980188;28;20180;-81
2023/04/03 04:04:22;;;;;;;9.90;7.50;;;2.20;99.90;;;;;;4960392;28;20239;-81
2023/04/03 04:06:48;;;;;;;12.90;8.80;;;2.20;99.90;;;;;;4961833;28;20192;-81
2023/04/03 04:09:14;;;;;;;11.30;8.10;;;2.20;99.90;;;;;;4977928;28;20231;-83
2023/04/03 04:11:40;;;;;;;10.93;8.67;;;2.10;70.30;;;;;;4978587;28;20223;-82
2023/04/03 04:14:06;;;;;;;12.67;8.80;;;2.10;99.90;;;;;;4974235;28;20212;-83
2023/04/03 04:16:32;;;;;;;11.13;8.02;;;2.10;99.90;;;;;;4979317;28;20440;-81
2023/04/03 04:18:57;;;;;;;9.27;8.30;;;2.10;99.90;;;;;;4976951;28;20195;-81
2023/04/03 04:21:23;;;;;;;12.23;8.60;;;2.10;99.90;;;;;;4979446;28;20284;-81
2023/04/03 04:23:48;;;;;;;12.60;9.87;;;2.10;99.90;;;;;;4959901;28;20212;-82
2023/04/03 04:26:14;;;;;;;14.87;8.50;;;2.10;99.90;;;;;;4977514;28;20192;-81
2023/04/03 04:28:39;;;;;;;12.93;8.80;;;2.10;99.90;;;;;;4978837;28;20208;-82
2023/04/03 04:31:05;;;;;;;10.90;8.43;;;2.10;99.90;;;;;;4971966;28;20192;-84
2023/04/03 04:33:30;;;;;;;14.50;9.00;;;2.10;99.90;;;;;;4977739;28;20307;-85
2023/04/03 04:35:56;;;;;;;11.33;8.53;;;2.10;99.90;;;;;;4955410;28;20180;-82
2023/04/03 04:38:22;;;;;;;17.63;8.40;;;2.10;99.90;;;;;;4977362;28;20623;-82
2023/04/03 04:40:48;;;;;;;12.13;7.77;;;2.10;99.90;;;;;;4979616;28;20263;-81
2023/04/03 04:43:14;;;;;;;11.07;7.90;;;2.10;99.90;;;;;;4978311;28;20204;-84
2023/04/03 04:45:40;;;;;;;11.77;7.60;;;2.10;99.90;;;;;;4976112;28;20219;-81
2023/04/03 04:48:06;;;;;;;12.98;9.32;;;2.10;99.90;;;;;;4940398;29;20204;-82
2023/04/03 04:50:31;;;;;;;13.80;8.37;;;2.10;99.90;;;;;;4977523;28;20528;-81
2023/04/03 04:52:57;;;;;;;13.00;9.30;;;2.00;99.90;;;;;;4959072;28;20461;-80
2023/04/03 04:55:22;;;;;;;11.93;8.43;;;2.00;99.90;;;;;;4977531;28;20235;-81
2023/04/03 04:57:48;;;;;;;14.40;8.50;;;2.00;99.90;;;;;;4980085;28;20299;-81
2023/04/03 05:00:18;;;;;;;15.47;9.40;;;2.00;99.90;;;;;;4978083;28;20727;-81
2023/04/03 05:02:43;;;;;;;11.63;8.30;;;2.00;1.00;;;;;;4960654;28;20188;-84
2023/04/03 05:05:09;;;;;;;14.03;8.30;;;2.00;1.00;;;;;;4973629;28;20215;-81
2023/04/03 05:07:35;;;;;;;12.33;7.73;;;2.00;1.00;;;;;;4959849;28;20200;-81
2023/04/03 05:10:07;;;;;;;11.95;8.50;;;2.00;1.00;;;;;;4976519;28;20216;-81
2023/04/03 05:12:32;;;;;;;9.23;7.05;;;2.10;1.00;;;;;;4976708;28;20184;-81
2023/04/03 05:14:58;;;;;;;9.90;7.50;;;2.10;1.00;;;;;;4961144;28;21543;-82
2023/04/03 05:17:23;;;;;;;11.93;7.40;;;2.10;1.00;;;;;;4978280;28;20185;-82
2023/04/03 05:19:49;;;;;;;10.40;7.50;;;2.10;99.90;;;;;;4962036;28;20740;-81
2023/04/03 05:22:14;;;;;;;8.70;6.80;;;2.10;1.00;;;;;;4974564;28;20609;-85
2023/04/03 05:24:40;;;;;;;11.70;6.90;;;2.10;99.90;;;;;;4957258;28;20607;-82
2023/04/03 05:27:06;;;;;;;9.13;6.83;;;2.20;99.90;;;;;;4977683;28;20939;-81
2023/04/03 05:29:31;;;;;;;10.47;7.10;;;2.20;99.90;;;;;;4976899;28;20215;-81
2023/04/03 05:31:57;;;;;;;9.77;6.33;;;2.30;99.90;;;;;;4958249;28;20191;-81
2023/04/03 05:34:28;;;;;;;7.90;6.47;;;2.30;99.90;;;;;;4978816;28;20204;-82
2023/04/03 05:36:53;;;;;;;10.70;7.35;;;2.40;99.90;;;;;;4983081;28;20187;-81
2023/04/03 05:39:23;;;;;;;11.00;5.97;;;2.50;1.00;;;;;;4974467;28;20665;-83
2023/04/03 05:41:53;;;;;;;8.20;5.65;;;2.50;1.00;;;;;;4960302;28;20187;-81
2023/04/03 05:44:19;;;;;;;8.23;5.85;;;2.50;1.00;;;;;;4956862;28;20208;-84
2023/04/03 05:46:44;;;;;;;12.40;6.00;;;2.60;1.00;;;;;;4979105;28;20470;-81
2023/04/03 05:49:41;;;;;;;10.93;6.17;;;3.10;1.00;;;;;;4962306;28;20208;-82
2023/04/03 05:52:26;;;;;;;13.43;5.97;;;7.30;1.00;;;;;;4977743;28;20207;-84
2023/04/03 05:54:55;;;;;;;9.17;5.37;;;12.00;1.00;;;;;;4975154;28;20463;-84
2023/04/03 05:57:34;;;;;;;6.27;4.53;;;15.10;99.90;;;;;;4975010;28;20481;-82
2023/04/03 06:00:12;;;;;;;6.87;4.67;;;17.60;99.90;;;;;;4957423;28;20553;-82
2023/04/03 06:02:38;;;;;;;6.10;4.10;;;20.30;99.90;;;;;;4962178;28;20821;-83
2023/04/03 06:05:11;;;;;;;6.50;4.33;;;22.90;99.90;;;;;;4960584;28;20471;-85
2023/04/03 06:07:37;;;;;;;8.90;4.20;;;25.20;99.90;;;;;;4963070;28;20562;-82
2023/04/03 06:10:06;;;;;;;7.03;3.90;;;27.20;99.90;;;;;;4962184;28;20470;-83
2023/04/03 06:12:35;;;;;;;7.70;4.37;;;28.90;99.90;;;;;;4959869;28;20239;-82
2023/04/03 06:15:16;;;;;;;4.17;3.27;;;30.20;99.90;;;;;;4966725;28;20463;-87
2023/04/03 06:17:51;;;;;;;5.57;3.53;;;31.30;99.90;;;;;;4966568;28;20540;-86
2023/04/03 06:20:21;;;;;;;4.30;3.87;;;32.60;99.90;;;;;;4963755;28;20506;-83
2023/04/03 06:22:53;;;;;;;6.10;3.73;;;33.60;99.90;;;;;;4986201;28;20431;-83
2023/04/03 06:25:21;;;;;;;6.33;4.13;;;34.60;99.90;;;;;;4959399;28;20462;-82
2023/04/03 06:27:51;;;;;;;5.87;3.70;;;35.30;99.90;;;;;;4958658;28;20454;-83
2023/04/03 06:30:35;;;;;;;5.53;3.30;;;36.00;99.90;;;;;;4975930;28;20473;-82
2023/04/03 06:33:09;;;;;;;5.87;3.90;;;36.50;99.90;;;;;;4970356;28;20463;-83
2023/04/03 06:35:38;;;;;;;5.23;3.40;;;36.90;99.90;;;;;;4953368;28;20462;-82
2023/04/03 06:38:09;;;;;;;8.47;3.80;;;37.30;99.90;;;;;;4952566;28;20439;-82
2023/04/03 06:40:46;;;;;;;6.83;3.30;;;37.80;99.90;;;;;;4969296;28;20436;-82
2023/04/03 06:43:17;;;;;;;6.17;3.13;;;38.30;99.90;;;;;;4957569;28;20990;-83
2023/04/03 06:45:47;;;;;;;4.47;3.70;;;38.70;99.90;;;;;;4958162;28;20439;-83
2023/04/03 06:48:19;;;;;;;5.57;3.53;;;39.10;99.90;;;;;;4973206;28;20499;-83
2023/04/03 06:51:00;;;;;;;4.50;3.47;;;39.60;99.90;;;;;;4958434;28;20467;-82
2023/04/03 06:53:34;;;;;;;5.63;3.27;;;39.70;99.90;;;;;;4956816;28;20479;-86
2023/04/03 06:56:00;;;;;;;5.27;3.93;;;40.10;99.90;;;;;;4962498;28;20469;-85
2023/04/03 06:58:26;;;;;;;6.20;4.00;;;40.50;99.90;;;;;;4964972;28;20426;-86
2023/04/03 07:00:57;;;;;;;5.67;3.27;;;40.90;99.90;;;;;;4978508;28;20215;-83
2023/04/03 07:03:29;;;;;;;6.03;3.60;;;41.10;99.90;;;;;;4964025;28;20300;-83
2023/04/03 07:05:57;;;;;;;6.97;3.00;;;41.50;99.90;;;;;;4958486;28;20506;-83
2023/04/03 07:08:26;;;;;;;5.27;3.20;;;41.90;99.90;;;;;;4950323;28;20955;-83
2023/04/03 07:10:51;;;;;;;6.80;3.60;;;42.40;99.90;;;;;;4956920;28;20502;-84
2023/04/03 07:13:17;;;;;;;6.23;3.40;;;42.70;99.90;;;;;;4976813;28;20552;-83
2023/04/03 07:15:54;;;;;;;5.50;3.07;;;42.70;99.90;;;;;;4976084;28;20200;-83
2023/04/03 07:18:31;;;;;;;5.50;2.97;;;43.00;99.90;;;;;;4973105;28;20191;-84
2023/04/03 07:21:03;;;;;;;5.87;3.00;;;43.20;99.90;;;;;;4954120;28;20451;-86
2023/04/03 07:23:29;;;;;;;4.77;3.00;;;43.60;99.90;;;;;;4954252;28;20471;-83
2023/04/03 07:25:55;;;;;;;4.60;2.80;;;43.90;99.90;;;;;;4979389;28;20470;-85
2023/04/03 07:28:27;;;;;;;4.23;3.23;;;44.50;99.90;;;;;;4962930;28;20204;-83
2023/04/03 07:31:02;;;;;;;5.80;3.50;;;45.10;99.90;;;;;;4950080;28;20538;-83
2023/04/03 07:33:30;;;;;;;4.93;3.20;;;45.20;99.90;;;;;;4967091;28;20462;-88
2023/04/03 07:36:00;;;;;;;4.83;2.97;;;45.00;99.90;;;;;;4952182;28;20946;-81
2023/04/03 07:38:28;;;;;;;6.33;3.43;;;44.80;99.90;;;;;;4954521;28;20507;-81
2023/04/03 07:40:59;;;;;;;5.20;3.53;;;44.70;99.90;;;;;;4957542;28;20496;-81
2023/04/03 07:43:28;;;;;;;4.57;3.40;;;44.90;99.90;;;;;;4954133;28;20503;-81
2023/04/03 07:45:56;;;;;;;8.10;3.90;;;44.80;99.90;;;;;;4959005;28;20881;-82
2023/04/03 07:48:24;;;;;;;4.00;3.60;;;44.50;99.90;;;;;;4960280;28;20451;-82
2023/04/03 07:50:49;;;;;;;5.07;2.67;;;44.20;99.60;;;;;;4974047;28;20762;-81
2023/04/03 07:53:21;;;;;;;6.73;3.90;;;44.30;99.20;;;;;;4972939;28;20980;-81
2023/04/03 07:55:55;;;;;;;5.33;2.80;;;44.00;97.80;;;;;;4964643;28;20188;-84
2023/04/03 07:58:28;;;;;;;4.70;2.73;;;43.40;95.20;;;;;;4970228;28;20440;-83
2023/04/03 08:00:54;;;;;;;6.23;3.00;;;43.00;93.80;;;;;;4956618;28;20451;-82
2023/04/03 08:03:25;;;;;;;7.33;2.90;;;43.20;93.30;;;;;;4957725;28;21093;-81
2023/04/03 08:06:04;;;;;;;6.47;2.70;;;43.30;92.70;;;;;;4970334;28;20231;-84
2023/04/03 08:08:31;;;;;;;5.40;2.70;;;43.00;91.70;;;;;;4956913;28;20443;-81
2023/04/03 08:11:02;;;;;;;5.87;3.33;;;43.00;91.00;;;;;;4971465;28;20471;-82
2023/04/03 08:13:32;;;;;;;5.13;2.80;;;42.70;90.00;;;;;;4974146;28;20459;-82
2023/04/03 08:16:06;;;;;;;5.03;2.53;;;41.90;86.20;;;;;;4954699;28;20506;-81
2023/04/03 08:18:39;;;;;;;6.93;2.47;;;41.50;83.70;;;;;;4967337;28;20453;-84
2023/04/03 08:21:12;;;;;;;4.63;2.70;;;41.10;82.20;;;;;;4978732;28;20436;-81
2023/04/03 08:23:41;;;;;;;2.37;2.10;;;41.10;81.60;;;;;;4963922;28;20463;-81
2023/04/03 08:26:17;;;;;;;5.73;2.77;;;40.80;79.50;;;;;;4960048;28;20448;-82
2023/04/03 08:28:48;;;;;;;3.97;2.40;;;40.60;78.40;;;;;;4969857;28;20443;-82
2023/04/03 08:31:19;;;;;;;4.00;2.40;;;40.30;76.80;;;;;;4958658;28;20478;-83
2023/04/03 08:33:50;;;;;;;6.10;2.30;;;40.20;75.60;;;;;;4958534;28;20479;-82
2023/04/03 08:36:22;;;;;;;5.07;2.80;;;40.10;75.90;;;;;;4961034;28;20451;-85
2023/04/03 08:38:51;;;;;;;7.37;2.53;;;39.80;74.20;;;;;;4978865;28;20442;-79
2023/04/03 08:41:39;;;;;;;4.17;2.20;;;39.60;73.20;;;;;;4961292;28;20444;-81
2023/04/03 08:44:26;;;;;;;2.97;1.73;;;39.70;73.80;;;;;;4963188;28;20474;-82
2023/04/03 08:47:04;;;;;;;6.17;2.80;;;39.70;73.80;;;;;;4972828;28;20439;-83
2023/04/03 08:49:37;;;;;;;4.40;2.47;;;39.20;71.30;;;;;;4961684;28;20475;-82
2023/04/03 08:52:46;;;;;;;4.60;1.70;;;38.90;69.10;;;;;;4957822;28;20578;-82
2023/04/03 08:55:29;;;;;;;4.77;1.90;;;38.70;68.40;;;;;;4941681;28;20595;-82
2023/04/03 08:58:03;;;;;;;4.30;1.50;;;37.20;62.10;;;;;;4976706;28;20432;-81
2023/04/03 09:00:45;;;;;;;2.43;1.40;;;36.90;61.00;;;;;;4956732;28;20478;-83
2023/04/03 09:03:17;;;;;;;3.87;1.67;;;36.80;60.70;;;;;;4966767;28;20454;-82
2023/04/03 09:05:54;;;;;;;3.30;1.87;;;36.90;60.70;;;;;;4960577;28;20446;-81
2023/04/03 09:08:49;;;;;;;2.70;1.67;;;36.60;59.90;;;;;;4960024;28;20466;-85
2023/04/03 09:11:51;;;;;;;2.27;1.33;;;36.10;58.60;;;;;;4972069;28;20455;-81
2023/04/03 09:14:50;;;;;;;3.33;1.70;;;34.60;70.90;;;;;;4976433;28;20466;-82
2023/04/03 09:17:47;;;;;;;2.90;1.70;;;33.80;53.60;;;;;;4961273;28;20432;-81
2023/04/03 09:20:40;;;;;;;3.87;1.87;;;33.60;52.30;;;;;;4972147;28;20450;-82
2023/04/03 09:23:28;;;;;;;4.47;1.83;;;33.80;53.60;;;;;;4964229;28;20443;-83
2023/04/03 09:26:05;;;;;;;5.10;1.83;;;33.70;54.20;;;;;;4982304;28;20450;-81
2023/04/03 09:28:35;;;;;;;4.17;1.77;;;33.30;52.60;;;;;;4978232;28;20435;-80
2023/04/03 09:31:14;;;;;;;3.00;1.30;;;33.10;52.70;;;;;;4961814;28;20645;-85
2023/04/03 09:33:40;;;;;;;6.10;1.73;;;33.20;53.30;;;;;;4967102;28;20704;-81
2023/04/03 09:36:09;;;;;;;4.70;1.47;;;33.00;53.10;;;;;;4970192;28;20431;-82
2023/04/03 09:38:39;;;;;;;5.20;1.23;;;33.40;54.50;;;;;;4961329;28;20439;-81
2023/04/03 09:41:17;;;;;;;3.30;2.03;;;33.60;54.80;;;;;;4958844;28;20971;-82
2023/04/03 09:43:55;;;;;;;4.23;1.90;;;33.20;53.40;;;;;;4955073;28;20447;-84
2023/04/03 09:46:32;;;;;;;4.33;1.70;;;32.80;52.20;;;;;;4958096;28;20827;-81
2023/04/03 09:49:06;;;;;;;3.20;1.63;;;32.40;51.30;;;;;;4968204;28;20440;-82
2023/04/03 09:51:38;;;;;;;4.50;1.20;;;32.20;50.30;;;;;;4978727;28;20434;-83
2023/04/03 09:54:27;;;;;;;2.80;1.50;;;32.10;50.50;;;;;;4964761;28;20558;-84
2023/04/03 09:57:18;;;;;;;2.43;1.47;;;31.50;48.80;;;;;;4962442;28;20512;-84
2023/04/03 10:00:10;;;;;;;2.40;1.50;;;31.30;49.10;;;;;;4955072;28;20463;-83
2023/04/03 10:02:59;;;;;;;2.90;1.50;;;30.90;47.70;;;;;;4976376;28;20443;-82
2023/04/03 10:05:42;;;;;;;4.53;1.63;;;30.50;47.10;;;;;;4964394;28;20431;-84
2023/04/03 10:08:19;;;;;;;3.47;1.80;;;30.20;47.00;;;;;;4956902;28;20462;-82
2023/04/03 10:11:07;;;;;;;3.20;1.40;;;29.70;45.60;;;;;;4948284;28;20515;-82
2023/04/03 10:13:36;;;;;;;3.17;1.40;;;29.70;45.10;;;;;;4964199;28;20478;-83
2023/04/03 10:16:13;;;;;;;3.77;1.23;;;29.50;45.00;;;;;;4954907;28;20491;-82
2023/04/03 10:19:32;;;;;;;5.43;1.53;;;28.90;42.80;;;;;;4971106;28;21229;-82
2023/04/03 10:22:05;;;;;;;3.90;1.60;;;28.10;41.20;;;;;;4917001;28;20483;-84
2023/04/03 10:24:54;;;;;;;4.23;1.40;;;27.80;41.40;;;;;;4975829;28;20491;-83
2023/04/03 10:27:44;;;;;;;2.90;1.70;;;28.00;42.50;;;;;;4973849;28;20762;-82
2023/04/03 10:30:56;;;;;;;2.30;1.40;;;28.40;44.10;;;;;;4969707;28;20579;-81
2023/04/03 10:33:40;;;;;;;2.20;1.40;;;28.20;44.00;;;;;;4957112;28;20466;-82
2023/04/03 10:36:19;;;;;;;2.73;1.63;;;27.80;42.60;;;;;;4973723;28;20431;-83
2023/04/03 10:39:13;;;;;;;2.30;1.60;;;27.20;40.90;;;;;;4957562;28;20922;-82
2023/04/03 10:41:56;;;;;;;6.03;1.87;;;26.90;39.80;;;;;;4959040;28;20450;-82
2023/04/03 10:45:01;;;;;;;3.63;1.17;;;26.40;39.20;;;;;;4957766;28;20494;-82
2023/04/03 10:47:58;;;;;;;3.77;1.70;;;26.70;41.70;;;;;;4960321;28;20439;-83
2023/04/03 10:50:41;;;;;;;2.97;1.40;;;26.40;40.70;;;;;;4963194;28;20535;-84
2023/04/03 10:53:44;;;;;;;4.17;1.57;;;26.30;41.70;;;;;;4961671;28;20470;-82
2023/04/03 10:56:26;;;;;;;3.50;1.43;;;26.30;41.10;;;;;;4975239;28;20428;-82
2023/04/03 10:59:35;;;;;;;4.43;2.93;;;26.20;41.40;;;;;;4963886;28;20458;-84
2023/04/03 11:02:20;;;;;;;2.37;1.37;;;25.60;39.00;;;;;;4962387;28;20526;-82
2023/04/03 11:04:57;;;;;;;2.93;1.30;;;25.50;39.20;;;;;;4958803;28;20467;-81
2023/04/03 11:07:37;;;;;;;4.13;1.40;;;25.70;40.10;;;;;;4958809;28;20443;-82
2023/04/03 11:10:16;;;;;;;2.90;1.50;;;26.00;40.30;;;;;;4976160;28;20467;-82
2023/04/03 11:12:52;;;;;;;3.77;1.37;;;26.00;40.90;;;;;;4956119;28;20459;-82
2023/04/03 11:15:31;;;;;;;2.80;1.30;;;25.60;39.90;;;;;;4953158;28;20565;-83
2023/04/03 11:18:16;;;;;;;2.80;1.30;;;25.90;42.10;;;;;;4961155;28;20443;-82
2023/04/03 11:20:53;;;;;;;3.77;1.90;;;26.20;43.40;;;;;;4972171;28;20434;-84
2023/04/03 11:23:39;;;;;;;2.33;1.20;;;26.40;44.70;;;;;;4960884;28;20471;-82
2023/04/03 11:26:22;;;;;;;3.43;1.47;;;26.60;45.30;;;;;;4961421;28;20436;-82
2023/04/03 11:29:16;;;;;;;4.63;1.40;;;26.90;46.30;;;;;;4958063;28;20440;-83
2023/04/03 11:32:08;;;;;;;2.30;1.40;;;26.70;45.40;;;;;;4962868;28;20447;-83
2023/04/03 11:34:41;;;;;;;4.10;1.93;;;26.40;44.60;;;;;;4964933;28;20510;-82
2023/04/03 11:37:17;;;;;;;3.77;1.50;;;26.20;50.80;;;;;;4961252;28;20502;-82
2023/04/03 11:40:12;;;;;;;2.60;1.50;;;25.90;44.00;;;;;;4961611;28;20450;-83
2023/04/03 11:42:49;;;;;;;3.70;1.13;;;25.70;43.70;;;;;;4984045;28;20887;-84
2023/04/03 11:45:23;;;;;;;6.90;1.70;;;25.80;44.30;;;;;;4959661;28;20455;-82
2023/04/03 11:47:50;;;;;;;2.80;1.33;;;26.20;46.10;;;;;;4976422;28;20921;-83
2023/04/03 11:50:34;;;;;;;3.60;1.63;;;26.20;45.90;;;;;;4975248;28;20526;-85
2023/04/03 11:53:06;;;;;;;3.77;1.60;;;25.80;44.30;;;;;;4959497;28;20859;-82
2023/04/03 11:55:31;;;;;;;3.20;1.40;;;25.60;43.60;;;;;;4977263;28;20442;-82
2023/04/03 11:57:57;;;;;;;7.23;1.43;;;25.40;43.50;;;;;;4960865;28;20431;-84
2023/04/03 12:00:47;;;;;;;2.67;1.47;;;25.40;44.50;;;;;;4960201;28;20283;-82
2023/04/03 12:03:28;;;;;;;5.30;1.97;;;25.30;43.20;;;;;;4968750;28;20192;-84
2023/04/03 12:06:17;;;;;;;3.43;1.30;;;25.10;43.70;;;;;;4977266;28;20442;-82
2023/04/03 12:08:48;;;;;;;2.43;1.30;;;25.30;44.80;;;;;;4980235;28;20450;-81
2023/04/03 12:11:18;;;;;;;2.70;1.80;;;25.30;44.70;;;;;;4963212;28;20552;-84
2023/04/03 12:14:25;;;;;;;2.17;1.40;;;24.90;43.10;;;;;;4958700;28;20816;-84
2023/04/03 12:16:53;;;;;;;2.00;1.30;;;24.50;42.10;;;;;;4974907;28;20421;-82
2023/04/03 12:19:46;;;;;;;4.10;1.30;;;24.50;42.50;;;;;;4978275;28;20443;-82
2023/04/03 12:22:15;;;;;;;3.43;1.57;;;24.20;41.80;;;;;;4981815;28;20443;-85
2023/04/03 12:24:48;;;;;;;2.43;1.40;;;24.20;45.00;;;;;;4977014;28;20463;-80
2023/04/03 12:27:41;;;;;;;4.73;1.60;;;24.30;43.80;;;;;;4964629;28;20434;-82
2023/04/03 12:30:30;;;;;;;4.40;2.20;;;24.50;57.20;;;;;;4959072;28;20483;-82
2023/04/03 12:33:09;;;;;;;2.23;1.53;;;24.50;44.40;;;;;;4963500;28;20439;-81
2023/04/03 12:35:52;;;;;;;4.17;1.70;;;24.00;42.40;;;;;;4981065;28;20466;-82
2023/04/03 12:38:48;;;;;;;2.57;1.50;;;23.80;41.80;;;;;;4961516;28;20842;-83
2023/04/03 12:41:16;;;;;;;4.03;1.90;;;23.40;40.50;;;;;;4973960;28;20943;-82
2023/04/03 12:43:59;;;;;;;4.03;1.60;;;23.40;40.50;;;;;;4961443;28;21276;-81
2023/04/03 12:46:35;;;;;;;2.60;1.60;;;23.60;42.20;;;;;;4972203;28;20439;-83
2023/04/03 12:49:01;;;;;;;2.87;1.37;;;24.00;44.00;;;;;;4977810;28;20528;-82
2023/04/03 12:51:40;;;;;;;2.23;1.07;;;24.10;44.90;;;;;;4963183;28;20964;-84
2023/04/03 12:54:25;;;;;;;5.90;1.27;;;24.10;45.70;;;;;;4979261;28;20455;-82
2023/04/03 12:57:11;;;;;;;2.23;1.30;;;23.60;43.50;;;;;;4982941;28;20435;-82
2023/04/03 12:59:41;;;;;;;2.80;1.47;;;23.50;43.20;;;;;;4975352;28;20482;-82
2023/04/03 13:02:49;;;;;;;4.53;1.60;;;23.50;43.30;;;;;;4971194;28;20997;-82
2023/04/03 13:05:19;;;;;;;3.17;1.50;;;23.50;43.00;;;;;;4979008;28;20463;-84
2023/04/03 13:08:04;;;;;;;4.80;1.83;;;23.00;41.40;;;;;;4966389;28;20490;-81
2023/04/03 13:10:45;;;;;;;2.53;1.50;;;22.60;52.20;;;;;;4969553;28;20481;-85
2023/04/03 13:13:17;;;;;;;2.47;1.50;;;22.20;38.80;;;;;;4958221;28;20439;-83
2023/04/03 13:15:48;;;;;;;2.80;1.40;;;22.30;39.70;;;;;;4955999;28;20503;-84
2023/04/03 13:18:34;;;;;;;2.83;1.20;;;22.00;38.40;;;;;;4971551;28;20827;-83
2023/04/03 13:21:23;;;;;;;3.40;1.57;;;21.70;38.30;;;;;;4973763;28;20450;-84